Time;durP1;ratioP1;P1;durP2;ratioP2;P2;SDS_P1;SDS_P2;PMS_P1;PMS_P2;Temp;Humidity;BMP_temperature;BMP_pressure;BME280_temperature;BME280_humidity;BME280_pressure;Samples;Min_cycle;Max_cycle;Signal;HPM_P1;HPM_P2
2022/07/02 00:01:20;;;;;;;11.52;7.13;;;15.30;99.90;;;;;;5013286;28;20026;-88
2022/07/02 00:03:55;;;;;;;9.00;7.03;;;15.30;99.90;;;;;;4995117;28;20068;-88
2022/07/02 00:06:31;;;;;;;;;;;15.30;99.90;;;;;;5015309;28;20037;-88
2022/07/02 00:09:00;;;;;;;23.00;9.10;;;15.30;99.90;;;;;;5017003;28;19993;-88
2022/07/02 00:11:26;;;;;;;14.80;7.65;;;15.30;99.90;;;;;;5017054;28;20264;-89
2022/07/02 00:13:53;;;;;;;9.10;7.07;;;15.30;99.90;;;;;;5016945;28;20386;-88
2022/07/02 00:16:37;;;;;;;13.77;8.25;;;15.30;99.90;;;;;;5016866;28;20033;-88
2022/07/02 00:19:03;;;;;;;11.38;8.10;;;15.30;99.90;;;;;;5016744;28;20053;-88
2022/07/02 00:21:29;;;;;;;10.15;7.88;;;15.20;99.90;;;;;;5015603;28;20077;-88
2022/07/02 00:24:21;;;;;;;11.65;8.00;;;15.20;99.90;;;;;;5016651;28;20483;-88
2022/07/02 00:26:57;;;;;;;12.35;7.72;;;15.30;99.90;;;;;;5016991;28;20026;-89
2022/07/02 00:29:55;;;;;;;16.60;8.75;;;15.20;99.90;;;;;;5016611;28;20022;-89
2022/07/02 00:32:26;;;;;;;13.27;8.35;;;15.20;99.90;;;;;;4999074;28;20034;-87
2022/07/02 00:34:55;;;;;;;11.05;9.10;;;15.20;99.90;;;;;;5016374;28;20113;-89
2022/07/02 00:37:21;;;;;;;10.75;8.30;;;15.20;99.90;;;;;;4998985;28;20551;-90
2022/07/02 00:40:02;;;;;;;16.52;8.90;;;15.20;99.90;;;;;;4999158;28;20022;-88
2022/07/02 00:42:30;;;;;;;17.33;9.32;;;15.20;99.90;;;;;;4998916;28;20505;-88
2022/07/02 00:44:57;;;;;;;11.45;8.60;;;15.20;99.90;;;;;;4998846;28;20026;-90
2022/07/02 00:51:07;;;;;;;12.73;7.95;;;15.20;99.90;;;;;;4997073;28;20375;-89
2022/07/02 00:53:33;;;;;;;12.25;8.10;;;15.20;99.90;;;;;;4996809;28;20422;-90
2022/07/02 00:55:59;;;;;;;13.68;8.05;;;15.20;99.90;;;;;;4979235;28;20023;-90
2022/07/02 00:58:35;;;;;;;8.73;6.45;;;15.20;99.90;;;;;;4996819;28;20026;-89
2022/07/02 01:01:00;;;;;;;10.85;7.45;;;15.20;99.90;;;;;;4985626;28;20032;-89
2022/07/02 01:03:30;;;;;;;14.77;7.80;;;15.20;99.90;;;;;;5015735;28;20108;-89
2022/07/02 01:05:56;;;;;;;11.30;6.75;;;15.20;99.90;;;;;;5016127;28;20026;-88
2022/07/02 01:11:19;;;;;;;18.67;7.30;;;15.20;99.90;;;;;;4996646;28;20034;-89
2022/07/02 01:13:47;;;;;;;7.22;5.70;;;15.20;99.90;;;;;;5014080;28;20038;-89
2022/07/02 01:16:16;;;;;;;10.57;6.70;;;15.10;99.90;;;;;;5001380;28;20117;-88
2022/07/02 01:18:42;;;;;;;15.70;6.40;;;15.10;99.90;;;;;;4998331;28;20065;-88
2022/07/02 01:21:26;;;;;;;7.93;6.32;;;15.20;99.90;;;;;;4998051;28;20061;-89
2022/07/02 01:23:52;;;;;;;8.02;6.32;;;15.20;99.90;;;;;;4998201;28;20497;-90
2022/07/02 01:26:55;;;;;;;8.30;6.15;;;15.10;99.90;;;;;;4998261;28;20101;-89
2022/07/02 01:29:21;;;;;;;11.13;7.20;;;15.20;99.90;;;;;;4997908;28;20038;-89
2022/07/02 01:31:46;;;;;;;11.77;7.78;;;15.10;99.90;;;;;;5015505;28;20026;-89
2022/07/02 01:34:24;;;;;;;10.40;6.95;;;15.10;99.90;;;;;;5015635;28;20022;-88
2022/07/02 01:36:50;;;;;;;11.90;6.85;;;15.10;99.90;;;;;;5015754;28;20030;-88
2022/07/02 01:39:22;;;;;;;10.02;7.13;;;15.10;99.90;;;;;;5015381;28;20067;-89
2022/07/02 01:42:23;;;;;;;8.07;6.32;;;15.00;99.90;;;;;;5015242;28;20088;-88
2022/07/02 01:44:48;;;;;;;9.88;6.20;;;15.10;99.90;;;;;;4998017;28;20055;-89
2022/07/02 01:47:14;;;;;;;8.77;6.40;;;15.10;99.90;;;;;;5015399;28;20486;-89
2022/07/02 01:49:42;;;;;;;10.07;6.80;;;15.10;99.90;;;;;;5015295;28;20022;-88
2022/07/02 01:52:08;;;;;;;10.10;6.38;;;15.00;99.90;;;;;;4998010;28;20037;-89
2022/07/02 01:54:34;;;;;;;8.80;5.97;;;15.10;99.90;;;;;;5015044;28;20033;-89
2022/07/02 01:57:21;;;;;;;9.98;6.32;;;15.10;99.90;;;;;;5015350;28;20597;-90
2022/07/02 01:59:47;;;;;;;12.23;6.90;;;15.10;99.90;;;;;;4997793;28;20529;-90
2022/07/02 02:02:12;;;;;;;9.60;6.47;;;15.10;99.90;;;;;;4997858;28;20065;-90
2022/07/02 02:04:42;;;;;;;10.52;6.32;;;15.10;99.90;;;;;;5015149;28;20029;-90
2022/07/02 02:07:08;;;;;;;9.02;5.85;;;15.10;99.90;;;;;;5015396;28;20101;-90
2022/07/02 02:09:34;;;;;;;8.30;6.18;;;15.20;99.90;;;;;;4997635;28;20107;-90
2022/07/02 02:12:15;;;;;;;9.75;6.05;;;15.20;99.90;;;;;;4997717;28;20034;-90
2022/07/02 02:14:40;;;;;;;14.20;6.45;;;15.20;99.90;;;;;;4997039;28;20034;-88
2022/07/02 02:17:06;;;;;;;8.93;6.10;;;15.20;99.90;;;;;;5015051;28;20034;-91
2022/07/02 02:22:54;;;;;;;9.05;5.57;;;15.10;99.90;;;;;;5009650;28;20513;-89
2022/07/02 02:25:22;;;;;;;8.80;5.93;;;15.10;99.90;;;;;;4997253;28;20026;-90
2022/07/02 02:27:50;;;;;;;11.40;5.97;;;15.20;99.90;;;;;;5014809;28;20026;-90
2022/07/02 02:30:19;;;;;;;9.20;6.60;;;15.20;99.90;;;;;;5014128;28;20088;-90
2022/07/02 02:32:45;;;;;;;10.82;7.25;;;15.20;99.90;;;;;;5014742;28;20026;-91
2022/07/02 02:38:36;;;;;;;10.63;5.90;;;15.20;99.90;;;;;;5014661;28;20037;-90
2022/07/02 02:41:09;;;;;;;7.90;6.47;;;15.20;99.90;;;;;;4997273;28;20024;-90
2022/07/02 02:43:35;;;;;;;7.03;6.32;;;15.20;99.90;;;;;;4996792;28;20594;-91
2022/07/02 02:46:01;;;;;;;10.73;6.47;;;15.10;99.90;;;;;;4996929;28;20030;-90
2022/07/02 02:49:01;;;;;;;8.10;6.32;;;15.10;99.90;;;;;;4996872;28;20037;-90
2022/07/02 02:51:27;;;;;;;11.55;6.88;;;15.10;99.90;;;;;;5014469;28;20026;-90
2022/07/02 02:53:53;;;;;;;14.20;6.82;;;15.10;99.90;;;;;;4996453;28;20498;-91
2022/07/02 02:56:41;;;;;;;9.02;6.45;;;15.10;99.90;;;;;;5014252;28;20022;-90
2022/07/02 02:59:07;;;;;;;14.98;7.38;;;15.10;99.90;;;;;;4996181;28;20033;-90
2022/07/02 03:01:33;;;;;;;10.25;6.10;;;15.10;99.90;;;;;;4996618;28;20018;-90
2022/07/02 03:04:04;;;;;;;12.00;5.90;;;15.10;99.90;;;;;;4996353;28;20037;-90
2022/07/02 03:06:30;;;;;;;9.70;6.95;;;15.10;99.90;;;;;;4996357;28;20088;-90
2022/07/02 03:09:13;;;;;;;9.70;5.50;;;15.20;99.90;;;;;;5014047;28;20072;-91
2022/07/02 03:11:41;;;;;;;12.18;5.30;;;15.10;99.90;;;;;;4996882;28;20060;-91
2022/07/02 03:14:06;;;;;;;11.23;5.20;;;15.20;99.90;;;;;;4996849;28;20501;-90
2022/07/02 03:16:33;;;;;;;8.82;4.55;;;15.20;99.90;;;;;;5013737;28;20026;-91
2022/07/02 03:18:58;;;;;;;7.30;4.70;;;15.20;99.90;;;;;;5013831;28;20482;-90
2022/07/02 03:21:24;;;;;;;7.30;4.45;;;15.20;99.90;;;;;;5013438;28;20026;-91
2022/07/02 03:24:12;;;;;;;5.22;4.20;;;15.20;99.90;;;;;;5013645;28;20045;-90
2022/07/02 03:26:37;;;;;;;9.88;4.32;;;15.20;99.90;;;;;;4996316;28;20033;-91
2022/07/02 03:29:03;;;;;;;4.45;3.58;;;15.20;99.90;;;;;;4996224;28;20129;-91
2022/07/02 03:31:47;;;;;;;7.13;4.32;;;15.10;99.90;;;;;;5014052;28;20038;-91
2022/07/02 03:34:12;;;;;;;5.50;4.47;;;15.10;99.90;;;;;;5013856;28;20034;-91
2022/07/02 03:36:38;;;;;;;9.80;5.50;;;15.00;99.90;;;;;;4996260;28;20386;-90
2022/07/02 03:39:06;;;;;;;7.05;4.70;;;15.00;99.90;;;;;;5013644;28;20112;-91
2022/07/02 03:41:31;;;;;;;4.47;4.00;;;15.00;99.90;;;;;;5013776;28;20029;-91
2022/07/02 03:43:57;;;;;;;4.57;4.03;;;14.90;99.90;;;;;;5013637;28;20595;-91
2022/07/02 03:46:26;;;;;;;7.57;5.25;;;14.90;99.90;;;;;;4995889;28;20544;-91
2022/07/02 03:48:52;;;;;;;4.38;3.97;;;14.80;99.90;;;;;;4996195;28;20029;-90
2022/07/02 03:51:17;;;;;;;5.00;4.50;;;14.80;99.90;;;;;;5013685;28;20018;-90
2022/07/02 03:54:08;;;;;;;6.93;4.80;;;14.70;99.90;;;;;;4995612;28;20061;-91
2022/07/02 03:56:34;;;;;;;6.45;5.25;;;14.70;99.90;;;;;;5013646;28;20030;-92
2022/07/02 03:58:59;;;;;;;6.03;4.95;;;14.70;99.90;;;;;;5013535;28;20123;-90
2022/07/02 04:01:54;;;;;;;6.68;5.25;;;14.60;99.90;;;;;;5013621;28;20027;-90
2022/07/02 04:04:20;;;;;;;5.53;4.95;;;14.60;99.90;;;;;;4996164;28;20014;-91
2022/07/02 04:07:15;;;;;;;4.80;4.38;;;14.50;99.90;;;;;;4996043;28;20018;-91
2022/07/02 04:09:41;;;;;;;5.57;4.50;;;14.60;99.90;;;;;;4996446;28;20580;-91
2022/07/02 04:12:07;;;;;;;5.07;4.57;;;14.50;99.90;;;;;;4996092;28;20117;-91
2022/07/02 04:14:33;;;;;;;5.47;4.95;;;14.50;99.90;;;;;;5000747;28;20391;-91
2022/07/02 04:16:59;;;;;;;6.50;4.97;;;14.50;99.90;;;;;;5013393;28;20109;-91
2022/07/02 04:19:25;;;;;;;4.40;4.00;;;14.40;99.90;;;;;;5012997;28;20060;-90
2022/07/02 04:21:53;;;;;;;8.68;6.43;;;14.40;99.90;;;;;;4992238;28;20038;-90
2022/07/02 04:24:19;;;;;;;4.93;4.43;;;14.50;99.90;;;;;;4993442;28;20069;-91
2022/07/02 04:26:44;;;;;;;5.75;4.65;;;14.50;99.90;;;;;;4993360;28;20023;-90
2022/07/02 04:29:10;;;;;;;5.53;4.88;;;14.50;99.90;;;;;;4991993;28;20038;-90
2022/07/02 04:31:35;;;;;;;5.75;5.13;;;14.50;99.90;;;;;;4992258;28;20022;-91
2022/07/02 04:34:01;;;;;;;12.93;5.15;;;14.60;99.90;;;;;;4991692;28;20030;-90
2022/07/02 04:36:26;;;;;;;7.93;4.85;;;14.60;99.90;;;;;;4993480;28;20023;-91
2022/07/02 04:38:53;;;;;;;4.25;3.85;;;14.70;99.90;;;;;;4992174;28;20391;-91
2022/07/02 04:41:19;;;;;;;4.20;3.90;;;14.70;99.90;;;;;;4993527;28;20037;-90
2022/07/02 04:43:44;;;;;;;5.22;4.72;;;14.70;99.90;;;;;;4993574;28;20463;-91
2022/07/02 04:46:51;;;;;;;5.97;4.90;;;14.80;99.90;;;;;;4993644;28;20477;-92
2022/07/02 04:49:16;;;;;;;6.55;4.35;;;14.80;99.90;;;;;;4992363;28;20406;-92
2022/07/02 04:51:56;;;;;;;4.18;3.78;;;14.80;99.90;;;;;;4993072;28;20042;-91
2022/07/02 04:54:22;;;;;;;4.55;4.15;;;14.90;99.90;;;;;;4995707;28;20037;-90
2022/07/02 04:57:01;;;;;;;5.07;4.22;;;14.90;99.90;;;;;;4997223;28;20026;-91
2022/07/02 04:59:26;;;;;;;9.88;5.05;;;15.00;99.90;;;;;;4996848;28;20129;-91
2022/07/02 05:01:52;;;;;;;5.28;4.72;;;15.00;99.90;;;;;;4995823;28;20215;-89
2022/07/02 05:04:39;;;;;;;4.97;4.53;;;15.10;99.90;;;;;;4996600;28;20026;-90
2022/07/02 05:07:05;;;;;;;5.07;4.32;;;15.10;99.90;;;;;;4996740;28;20034;-91
2022/07/02 05:09:31;;;;;;;9.30;5.38;;;15.20;99.90;;;;;;4999219;28;20109;-91
2022/07/02 05:12:02;;;;;;;6.13;4.07;;;15.30;99.90;;;;;;5011250;28;20475;-91
2022/07/02 05:14:29;;;;;;;7.63;4.40;;;15.30;99.90;;;;;;4975972;28;20057;-91
2022/07/02 05:16:55;;;;;;;4.97;4.50;;;15.30;99.90;;;;;;4977417;28;20046;-91
2022/07/02 05:19:21;;;;;;;5.90;4.68;;;15.40;99.90;;;;;;4993179;28;20069;-89
2022/07/02 05:21:55;;;;;;;5.68;3.67;;;15.50;99.90;;;;;;4999904;28;20038;-89
2022/07/02 05:24:20;;;;;;;5.65;3.85;;;15.60;99.90;;;;;;4997466;28;20410;-89
2022/07/02 05:26:50;;;;;;;5.30;3.55;;;15.60;99.90;;;;;;5016110;28;20104;-90
2022/07/02 05:29:16;;;;;;;6.60;3.50;;;15.70;99.90;;;;;;5016125;28;20429;-89
2022/07/02 05:31:54;;;;;;;6.57;3.28;;;15.90;99.90;;;;;;5016081;28;20026;-89
2022/07/02 05:34:20;;;;;;;6.28;2.92;;;16.00;99.90;;;;;;4997693;28;20116;-89
2022/07/02 05:36:51;;;;;;;3.72;2.95;;;16.00;99.90;;;;;;4996236;28;20221;-88
2022/07/02 05:39:16;;;;;;;6.20;3.28;;;16.10;99.90;;;;;;5014791;28;20030;-90
2022/07/02 05:41:58;;;;;;;6.65;4.43;;;16.10;99.90;;;;;;5015318;28;20087;-90
2022/07/02 05:44:24;;;;;;;6.60;4.55;;;16.20;99.90;;;;;;5014510;28;20064;-89
2022/07/02 05:46:51;;;;;;;8.65;4.75;;;16.30;99.90;;;;;;5015422;28;20029;-90
2022/07/02 05:49:17;;;;;;;7.65;5.15;;;16.40;99.90;;;;;;5001934;28;20085;-90
2022/07/02 05:52:03;;;;;;;6.00;4.65;;;16.40;99.90;;;;;;4983037;28;20025;-90
2022/07/02 05:54:28;;;;;;;6.10;4.80;;;16.50;99.90;;;;;;5015154;28;20076;-89
2022/07/02 05:57:01;;;;;;;9.35;4.30;;;16.50;99.90;;;;;;5015344;28;20033;-90
2022/07/02 05:59:27;;;;;;;6.00;3.97;;;16.50;99.90;;;;;;4999478;28;20057;-92
2022/07/02 06:01:52;;;;;;;3.90;3.13;;;16.50;99.90;;;;;;5000732;28;20032;-92
2022/07/02 06:07:40;;;;;;;7.57;3.67;;;16.70;99.90;;;;;;5016164;28;20025;-91
2022/07/02 06:13:27;;;;;;;6.13;2.78;;;16.80;99.90;;;;;;5015825;28;20441;-91
2022/07/02 06:15:57;;;;;;;4.82;3.13;;;16.80;99.90;;;;;;5016369;28;20049;-91
2022/07/02 06:18:23;;;;;;;4.07;2.50;;;16.80;99.90;;;;;;5015095;28;20025;-90
2022/07/02 06:20:49;;;;;;;8.38;3.05;;;16.90;99.90;;;;;;4997589;28;20092;-89
2022/07/02 06:23:16;;;;;;;3.97;2.20;;;17.00;99.90;;;;;;4992369;28;20126;-90
2022/07/02 06:25:58;;;;;;;3.67;1.65;;;17.00;99.90;;;;;;4994871;28;20022;-89
2022/07/02 06:28:24;;;;;;;6.05;2.10;;;17.00;99.90;;;;;;4994622;28;20026;-89
2022/07/02 06:30:49;;;;;;;6.70;2.22;;;17.10;99.90;;;;;;4993752;28;20030;-89
2022/07/02 06:33:21;;;;;;;3.97;1.73;;;17.20;99.90;;;;;;4994650;28;20033;-88
2022/07/02 06:35:47;;;;;;;3.63;2.08;;;17.20;99.90;;;;;;4994446;28;20033;-90
2022/07/02 06:38:25;;;;;;;6.25;2.63;;;17.40;99.90;;;;;;4993539;28;20030;-89
2022/07/02 06:40:50;;;;;;;4.25;2.78;;;17.40;99.90;;;;;;4994651;28;20031;-87
2022/07/02 06:43:26;;;;;;;5.43;2.63;;;17.40;99.90;;;;;;4994224;28;20027;-89
2022/07/02 06:45:54;;;;;;;7.97;3.55;;;17.50;99.90;;;;;;4994553;28;20027;-88
2022/07/02 06:48:20;;;;;;;7.45;2.25;;;17.50;99.90;;;;;;4994042;28;20245;-87
2022/07/02 06:50:50;;;;;;;3.92;2.40;;;17.60;99.90;;;;;;4994183;28;20081;-88
2022/07/02 06:53:16;;;;;;;4.45;2.42;;;17.60;99.90;;;;;;4994225;28;20022;-87
2022/07/02 06:55:41;;;;;;;9.07;3.03;;;17.70;99.90;;;;;;4993002;28;20034;-88
2022/07/02 06:58:22;;;;;;;7.75;2.35;;;17.80;99.90;;;;;;4993337;28;20034;-89
2022/07/02 07:00:48;;;;;;;4.15;2.28;;;17.90;99.90;;;;;;4989504;28;20027;-89
2022/07/02 07:03:13;;;;;;;4.30;2.60;;;17.90;99.90;;;;;;4994308;28;20037;-90
2022/07/02 07:05:46;;;;;;;5.38;2.58;;;18.00;99.90;;;;;;4992505;28;20084;-89
2022/07/02 07:08:12;;;;;;;6.45;2.50;;;18.00;99.90;;;;;;4993487;28;21524;-89
2022/07/02 07:10:52;;;;;;;8.30;2.40;;;18.10;99.90;;;;;;4993464;28;20056;-89
2022/07/02 07:13:17;;;;;;;6.53;2.78;;;18.10;99.90;;;;;;4993534;28;20038;-89
2022/07/02 07:15:43;;;;;;;7.50;1.70;;;18.10;99.90;;;;;;4993882;28;20033;-89
2022/07/02 07:21:56;;;;;;;3.47;1.42;;;18.20;99.90;;;;;;4991798;28;20512;-89
2022/07/02 07:24:27;;;;;;;5.20;1.90;;;18.20;99.90;;;;;;5006946;28;20077;-89
2022/07/02 07:26:53;;;;;;;4.70;1.45;;;18.30;99.90;;;;;;5012178;28;20030;-88
2022/07/02 07:29:19;;;;;;;2.15;1.15;;;18.40;99.90;;;;;;5013369;28;20033;-89
2022/07/02 07:31:45;;;;;;;7.63;1.42;;;18.50;99.90;;;;;;5001902;28;20482;-91
2022/07/02 07:34:11;;;;;;;8.63;1.40;;;18.60;99.90;;;;;;5009836;28;20462;-90
2022/07/02 07:37:05;;;;;;;3.15;1.38;;;18.70;99.90;;;;;;4995883;28;20117;-92
2022/07/02 07:39:31;;;;;;;3.28;1.45;;;18.70;99.90;;;;;;5012847;28;20371;-94
2022/07/02 07:41:56;;;;;;;6.70;1.60;;;18.70;99.90;;;;;;5013579;28;20105;-90
2022/07/02 07:44:38;;;;;;;7.00;1.80;;;18.80;99.90;;;;;;5013593;28;20064;-92
2022/07/02 07:47:04;;;;;;;6.45;1.88;;;18.80;99.90;;;;;;5013268;28;20105;-90
2022/07/02 07:49:29;;;;;;;8.80;1.88;;;18.90;99.90;;;;;;5013294;28;20463;-90
2022/07/02 07:52:00;;;;;;;5.65;2.10;;;19.00;99.90;;;;;;4995987;28;20466;-90
2022/07/02 07:54:25;;;;;;;3.17;1.95;;;19.10;99.90;;;;;;5013100;28;20018;-90
2022/07/02 07:56:51;;;;;;;3.83;1.80;;;19.10;99.90;;;;;;5013325;28;20045;-91
2022/07/02 07:59:19;;;;;;;3.75;1.70;;;18.90;99.90;;;;;;4995302;28;20101;-91
2022/07/02 08:01:44;;;;;;;8.68;1.67;;;18.90;99.90;;;;;;5012699;28;20093;-90
2022/07/02 08:04:18;;;;;;;6.35;1.77;;;19.00;99.90;;;;;;5013297;28;20585;-91
2022/07/02 08:06:43;;;;;;;3.83;1.33;;;19.00;99.90;;;;;;4995264;28;20033;-91
2022/07/02 08:09:09;;;;;;;6.93;1.50;;;19.00;99.90;;;;;;5012574;28;20390;-90
2022/07/02 08:11:35;;;;;;;6.22;1.63;;;19.00;99.90;;;;;;5012970;28;20524;-91
2022/07/02 08:14:00;;;;;;;4.72;1.30;;;19.10;99.90;;;;;;5012712;28;20371;-90
2022/07/02 08:16:40;;;;;;;12.32;1.40;;;19.20;99.90;;;;;;4995320;28;20496;-92
2022/07/02 08:19:06;;;;;;;6.53;1.20;;;19.10;99.90;;;;;;5013395;28;20162;-91
2022/07/02 08:21:38;;;;;;;3.00;1.40;;;19.30;99.90;;;;;;5015750;28;20026;-90
2022/07/02 08:24:04;;;;;;;4.07;1.20;;;19.40;99.90;;;;;;5012741;28;20100;-90
2022/07/02 08:26:30;;;;;;;3.10;1.10;;;19.40;99.90;;;;;;5011796;28;20040;-90
2022/07/02 08:29:19;;;;;;;6.25;1.17;;;19.40;99.90;;;;;;5016901;28;20022;-91
2022/07/02 08:31:45;;;;;;;4.05;1.23;;;19.40;99.90;;;;;;4999326;28;20033;-91
2022/07/02 08:35:00;;;;;;;2.13;0.95;;;19.50;99.90;;;;;;5017069;28;20394;-91
2022/07/02 08:38:07;;;;;;;1.27;0.90;;;19.60;99.90;;;;;;5000200;28;20025;-91
2022/07/02 08:40:33;;;;;;;5.43;1.02;;;19.70;99.90;;;;;;4999436;28;20025;-91
2022/07/02 08:43:00;;;;;;;1.65;0.88;;;19.60;99.90;;;;;;5017122;28;20036;-91
2022/07/02 08:48:50;;;;;;;1.85;0.98;;;19.60;99.90;;;;;;5017244;28;20037;-92
2022/07/02 08:54:37;;;;;;;10.95;1.20;;;19.70;99.90;;;;;;5016842;28;20439;-91
2022/07/02 09:00:59;;;;;;;4.03;1.23;;;19.70;99.90;;;;;;4997450;28;20104;-91
2022/07/02 09:03:26;;;;;;;1.73;1.05;;;19.80;99.90;;;;;;4997324;28;20033;-92
2022/07/02 09:05:53;;;;;;;2.83;1.25;;;19.90;99.90;;;;;;4997037;28;20030;-92
2022/07/02 09:08:22;;;;;;;2.92;0.70;;;20.00;99.90;;;;;;5010195;28;20022;-92
2022/07/02 09:10:50;;;;;;;4.78;1.10;;;20.00;99.90;;;;;;5009808;28;20030;-90
2022/07/02 09:13:17;;;;;;;2.28;0.93;;;20.20;99.90;;;;;;4998737;28;20026;-90
2022/07/02 09:15:56;;;;;;;2.05;1.00;;;20.40;99.90;;;;;;5016481;28;20026;-91
2022/07/02 09:18:22;;;;;;;6.22;1.05;;;20.40;99.90;;;;;;5016004;28;20056;-90
2022/07/02 09:20:47;;;;;;;4.65;1.23;;;20.40;99.90;;;;;;4998792;28;20119;-90
2022/07/02 09:23:22;;;;;;;16.55;1.45;;;20.50;99.90;;;;;;4995849;28;20077;-90
2022/07/02 09:25:49;;;;;;;2.50;0.77;;;20.70;99.90;;;;;;5016241;28;20040;-91
2022/07/02 09:28:16;;;;;;;2.75;0.77;;;20.70;99.90;;;;;;4998396;28;20060;-91
2022/07/02 09:34:04;;;;;;;1.67;0.90;;;20.90;99.90;;;;;;5015987;28;20369;-90
2022/07/02 09:36:55;;;;;;;3.10;1.25;;;20.90;99.90;;;;;;5015984;28;20104;-91
2022/07/02 09:39:30;;;;;;;4.32;0.98;;;20.90;99.90;;;;;;5016028;28;20038;-91
2022/07/02 09:41:57;;;;;;;4.07;1.02;;;21.00;99.20;;;;;;5015818;28;20030;-90
2022/07/02 09:44:26;;;;;;;9.95;1.50;;;21.00;99.90;;;;;;5015858;28;20466;-91
2022/07/02 09:46:52;;;;;;;5.63;1.02;;;21.20;96.50;;;;;;4998221;28;20022;-91
2022/07/02 09:49:17;;;;;;;3.13;0.88;;;21.30;99.90;;;;;;5015644;28;20022;-91
2022/07/02 09:52:15;;;;;;;2.80;1.10;;;21.40;99.90;;;;;;5015656;28;20072;-91
2022/07/02 09:54:42;;;;;;;4.05;1.30;;;21.50;99.90;;;;;;4997819;28;20042;-89
2022/07/02 09:57:37;;;;;;;4.05;0.90;;;21.50;99.90;;;;;;5010153;28;20049;-89
2022/07/02 10:00:05;;;;;;;3.85;0.85;;;21.50;99.90;;;;;;5034022;28;20036;-90
2022/07/02 10:02:30;;;;;;;3.83;1.30;;;21.40;98.90;;;;;;5035241;28;20040;-89
2022/07/02 10:05:33;;;;;;;3.90;1.00;;;21.40;98.80;;;;;;5031447;28;20092;-88
2022/07/02 10:08:01;;;;;;;2.65;1.17;;;21.40;99.90;;;;;;4996805;28;20022;-88
2022/07/02 10:10:46;;;;;;;2.65;0.77;;;21.40;99.90;;;;;;5014508;28;20054;-88
2022/07/02 10:13:14;;;;;;;2.25;0.90;;;21.50;99.90;;;;;;4985798;28;20021;-87
2022/07/02 10:15:47;;;;;;;5.20;0.85;;;21.60;98.30;;;;;;5013845;28;20026;-88
2022/07/02 10:18:39;;;;;;;3.13;1.08;;;21.60;99.90;;;;;;5019202;28;20025;-87
2022/07/02 10:21:05;;;;;;;2.85;0.85;;;21.70;97.80;;;;;;5014648;28;20101;-88
2022/07/02 10:23:33;;;;;;;4.45;1.10;;;21.70;99.90;;;;;;4994750;28;20913;-87
2022/07/02 10:25:59;;;;;;;3.65;0.70;;;21.80;99.90;;;;;;4995760;28;20025;-88
2022/07/02 10:28:33;;;;;;;1.65;0.80;;;21.80;99.90;;;;;;5013859;28;20033;-88
2022/07/02 10:30:59;;;;;;;2.58;0.85;;;21.90;98.30;;;;;;5014383;28;20022;-94
2022/07/02 10:33:51;;;;;;;1.70;0.60;;;21.90;96.20;;;;;;4996844;28;20022;-87
2022/07/02 10:36:23;;;;;;;0.90;0.55;;;21.90;98.60;;;;;;5014677;28;20543;-88
2022/07/02 10:38:57;;;;;;;0.93;0.52;;;21.90;97.50;;;;;;5018056;28;20026;-87
2022/07/02 10:41:30;;;;;;;7.97;1.27;;;21.90;92.70;;;;;;4981835;28;20030;-86
2022/07/02 10:43:59;;;;;;;3.10;1.00;;;21.90;94.80;;;;;;5013865;28;20022;-88
2022/07/02 10:46:27;;;;;;;0.60;0.60;;;22.00;81.90;;;;;;4995366;28;20491;-87
2022/07/02 10:48:55;;;;;;;0.60;0.60;;;22.10;65.40;;;;;;5012590;28;20474;-86
2022/07/02 10:51:24;;;;;;;0.95;0.55;;;22.00;61.20;;;;;;5011105;28;20056;-88
2022/07/02 10:53:51;;;;;;;3.95;0.60;;;22.10;80.80;;;;;;5012474;28;20051;-87
2022/07/02 10:56:17;;;;;;;3.28;0.65;;;22.10;87.40;;;;;;5013732;28;20425;-87
2022/07/02 10:58:45;;;;;;;1.00;0.70;;;22.10;91.20;;;;;;4984741;28;20030;-87
2022/07/02 11:01:29;;;;;;;1.00;0.80;;;22.20;75.20;;;;;;4995810;28;20482;-89
2022/07/02 11:03:57;;;;;;;1.67;0.90;;;22.30;70.40;;;;;;5008857;28;20482;-87
2022/07/02 11:06:48;;;;;;;8.63;0.90;;;22.50;70.80;;;;;;5011004;28;20026;-87
2022/07/02 11:09:13;;;;;;;3.60;0.90;;;22.40;82.30;;;;;;4994939;28;20034;-88
2022/07/02 11:11:39;;;;;;;4.30;0.80;;;22.60;71.30;;;;;;4992858;28;20049;-88
2022/07/02 11:14:12;;;;;;;1.30;0.90;;;22.80;69.80;;;;;;5010645;28;20485;-88
2022/07/02 11:16:52;;;;;;;0.57;0.55;;;22.90;63.40;;;;;;5010643;28;20463;-87
2022/07/02 11:19:20;;;;;;;1.55;0.75;;;23.00;67.60;;;;;;5009442;28;20172;-89
2022/07/02 11:22:00;;;;;;;1.20;0.82;;;23.00;72.00;;;;;;4994306;28;20058;-88
2022/07/02 11:24:28;;;;;;;3.75;0.63;;;23.10;61.40;;;;;;5006978;28;20418;-87
2022/07/02 11:26:54;;;;;;;6.95;1.17;;;23.10;65.80;;;;;;5011676;28;20030;-89
2022/07/02 11:29:20;;;;;;;5.60;1.25;;;23.00;65.00;;;;;;5012591;28;20033;-87
2022/07/02 11:32:39;;;;;;;2.30;0.80;;;22.90;62.80;;;;;;5011571;28;20037;-89
2022/07/02 11:35:05;;;;;;;1.60;0.60;;;22.90;66.40;;;;;;5005361;28;20022;-87
2022/07/02 11:37:31;;;;;;;2.30;0.68;;;22.90;65.20;;;;;;5013079;28;20648;-88
2022/07/02 11:43:26;;;;;;;2.17;0.90;;;23.10;70.80;;;;;;5018276;28;20013;-93
2022/07/02 11:45:51;;;;;;;1.63;0.75;;;23.20;70.80;;;;;;4999593;28;20029;-93
2022/07/02 11:48:21;;;;;;;1.70;0.65;;;23.10;73.80;;;;;;5015001;28;20026;-93
2022/07/02 11:51:26;;;;;;;3.40;1.10;;;23.10;71.80;;;;;;5016420;28;20033;-94
2022/07/02 11:54:02;;;;;;;5.65;1.13;;;23.10;75.90;;;;;;4997841;28;20093;-91
2022/07/02 11:56:31;;;;;;;4.47;1.00;;;23.30;75.80;;;;;;4997918;28;20032;-93
2022/07/02 11:59:08;;;;;;;10.13;1.00;;;23.40;74.50;;;;;;4998674;28;20108;-93
2022/07/02 12:01:35;;;;;;;6.78;1.33;;;23.40;75.20;;;;;;4998817;28;20035;-94
2022/07/02 12:07:47;;;;;;;1.05;0.70;;;23.30;84.20;;;;;;5022259;28;20087;-94
2022/07/02 12:11:09;;;;;;;6.53;1.88;;;23.20;87.70;;;;;;5003592;28;20038;-92
2022/07/02 12:13:34;;;;;;;6.00;1.25;;;23.00;88.50;;;;;;5016977;28;20022;-94
2022/07/02 12:16:00;;;;;;;8.07;0.63;;;22.90;92.60;;;;;;5001481;28;20033;-95
2022/07/02 12:19:07;;;;;;;2.15;0.85;;;22.90;83.80;;;;;;5001580;28;20053;-95
2022/07/02 12:21:37;;;;;;;8.05;1.23;;;22.80;78.10;;;;;;4999892;28;20497;-93
2022/07/02 12:27:53;;;;;;;0.90;0.55;;;23.00;94.40;;;;;;4972264;28;20125;-94
2022/07/02 12:30:19;;;;;;;2.42;1.00;;;23.30;71.20;;;;;;4978608;28;20042;-89
2022/07/02 12:36:18;;;;;;;2.90;0.85;;;23.50;81.40;;;;;;4959313;29;20030;-91
2022/07/02 12:38:50;;;;;;;2.20;0.68;;;23.60;80.40;;;;;;4975260;28;20035;-93
2022/07/02 12:41:16;;;;;;;3.53;0.68;;;23.50;77.30;;;;;;4978458;28;20386;-92
2022/07/02 12:43:58;;;;;;;4.38;1.13;;;23.70;80.40;;;;;;4975897;28;20023;-93
2022/07/02 12:46:24;;;;;;;2.25;0.70;;;23.70;76.20;;;;;;4977044;28;20023;-92
2022/07/02 12:48:51;;;;;;;1.23;0.65;;;24.00;68.60;;;;;;4975188;28;20121;-92
2022/07/02 12:51:17;;;;;;;3.15;0.77;;;24.10;65.50;;;;;;4977068;28;20031;-90
2022/07/02 12:53:42;;;;;;;2.00;0.90;;;24.00;69.20;;;;;;4976590;28;20539;-91
2022/07/02 12:56:10;;;;;;;1.02;0.70;;;24.00;65.30;;;;;;4972434;28;20073;-91
2022/07/02 12:58:37;;;;;;;12.55;0.82;;;24.00;67.40;;;;;;4974715;28;20557;-91
2022/07/02 13:01:42;;;;;;;2.78;0.75;;;24.00;70.00;;;;;;4974266;28;20024;-90
2022/07/02 13:04:08;;;;;;;2.30;0.88;;;23.90;67.70;;;;;;4973684;28;20023;-91
2022/07/02 13:06:33;;;;;;;1.63;0.50;;;23.80;66.20;;;;;;4973872;28;21120;-91
2022/07/02 13:09:04;;;;;;;2.53;0.70;;;23.80;64.30;;;;;;4970313;28;20102;-90
2022/07/02 13:11:30;;;;;;;2.97;1.10;;;23.90;65.00;;;;;;4972596;28;20507;-89
2022/07/02 13:13:56;;;;;;;7.43;1.15;;;23.90;63.60;;;;;;4973402;28;20062;-90
2022/07/02 13:16:40;;;;;;;2.30;0.88;;;23.90;65.40;;;;;;4975485;28;20050;-91
2022/07/02 13:19:05;;;;;;;3.00;0.80;;;24.00;68.40;;;;;;4972551;28;20057;-91
2022/07/02 13:21:31;;;;;;;1.38;1.05;;;23.90;68.80;;;;;;4973791;28;20019;-90
2022/07/02 13:23:57;;;;;;;1.80;0.75;;;23.90;65.80;;;;;;4975485;28;20029;-91
2022/07/02 13:26:22;;;;;;;3.35;0.90;;;23.80;61.90;;;;;;4980306;28;20042;-90
2022/07/02 13:28:48;;;;;;;6.15;0.80;;;23.80;64.00;;;;;;4988368;28;20066;-91
2022/07/02 13:31:14;;;;;;;2.05;0.85;;;23.80;67.90;;;;;;4977090;28;20109;-92
2022/07/02 13:33:39;;;;;;;4.18;1.13;;;23.70;70.20;;;;;;4993333;28;20498;-92
2022/07/02 13:36:07;;;;;;;1.13;0.45;;;23.90;71.90;;;;;;4991989;28;20037;-92
2022/07/02 13:38:32;;;;;;;4.20;0.73;;;24.00;66.20;;;;;;4993921;28;20026;-90
2022/07/02 13:40:58;;;;;;;1.02;0.43;;;24.10;67.00;;;;;;4993918;28;20383;-90
2022/07/02 13:43:24;;;;;;;3.03;0.80;;;24.40;63.40;;;;;;4993045;28;20113;-90
2022/07/02 13:46:01;;;;;;;3.08;0.80;;;24.50;57.80;;;;;;4993742;28;20499;-90
2022/07/02 13:48:26;;;;;;;2.83;0.55;;;24.60;59.60;;;;;;4995184;28;20410;-90
2022/07/02 13:50:52;;;;;;;2.03;0.80;;;24.60;57.20;;;;;;4994252;28;20165;-91
2022/07/02 13:53:19;;;;;;;4.30;1.55;;;24.70;60.50;;;;;;4994955;28;20077;-91
2022/07/02 13:55:45;;;;;;;1.00;0.70;;;24.70;58.80;;;;;;4995618;28;20034;-90
2022/07/02 13:58:20;;;;;;;2.65;0.88;;;24.50;58.50;;;;;;4992827;28;20037;-88